createdAt,value
2017-08-18T00:00:27.296Z,20.30
2017-08-18T00:02:55.054Z,20.30
2017-08-18T00:05:23.272Z,20.30
2017-08-18T00:07:51.150Z,20.30
2017-08-18T00:10:18.863Z,20.30
2017-08-18T00:12:46.353Z,20.30
2017-08-18T00:15:14.709Z,20.40
2017-08-18T00:17:43.572Z,20.40
2017-08-18T00:20:11.018Z,20.40
2017-08-18T00:22:38.963Z,20.40
2017-08-18T00:25:06.402Z,20.40
2017-08-18T00:27:34.478Z,20.40
2017-08-18T00:30:02.101Z,20.40
2017-08-18T00:32:29.539Z,20.40
2017-08-18T00:34:57.296Z,20.40
2017-08-18T00:37:25.927Z,20.40
2017-08-18T00:39:53.794Z,20.40
2017-08-18T00:42:21.249Z,20.40
2017-08-18T00:44:48.693Z,20.40
2017-08-18T00:47:17.476Z,20.50
2017-08-18T00:49:44.979Z,20.40
2017-08-18T00:52:12.454Z,20.40
2017-08-18T00:54:39.979Z,20.50
2017-08-18T00:57:07.945Z,20.40
2017-08-18T00:59:35.894Z,20.40
2017-08-18T01:02:04.359Z,20.40
2017-08-18T01:04:31.792Z,20.40
2017-08-18T01:06:59.960Z,20.40
2017-08-18T01:09:27.906Z,20.40
2017-08-18T01:11:55.357Z,20.40
2017-08-18T01:14:23.570Z,20.40
2017-08-18T01:16:51.116Z,20.30
2017-08-18T01:19:19.002Z,20.30
2017-08-18T01:21:47.014Z,20.30
2017-08-18T01:24:14.449Z,20.30
2017-08-18T01:26:41.889Z,20.40
2017-08-18T01:29:10.859Z,20.40
2017-08-18T01:31:38.498Z,20.40
2017-08-18T01:34:06.418Z,20.30
2017-08-18T01:36:35.622Z,20.30
2017-08-18T01:39:03.847Z,20.30
2017-08-18T01:41:31.314Z,20.30
2017-08-18T01:43:59.856Z,20.30
2017-08-18T01:46:27.598Z,20.30
2017-08-18T01:48:55.119Z,20.30
2017-08-18T01:51:22.892Z,20.30
2017-08-18T01:53:50.409Z,20.30
2017-08-18T01:56:19.413Z,20.30
2017-08-18T01:58:47.309Z,20.30
2017-08-18T02:01:15.054Z,20.20
2017-08-18T02:03:43.078Z,20.30
2017-08-18T02:06:11.851Z,20.20
2017-08-18T02:08:39.306Z,20.20
2017-08-18T02:11:07.953Z,20.10
2017-08-18T02:13:35.472Z,20.10
2017-08-18T02:16:02.909Z,20.00
2017-08-18T02:18:31.093Z,20.00
2017-08-18T02:20:58.526Z,19.90
2017-08-18T02:23:26.316Z,19.90
2017-08-18T02:25:53.784Z,19.90
2017-08-18T02:28:21.209Z,19.90
2017-08-18T02:30:48.904Z,19.80
2017-08-18T02:33:16.351Z,19.80
2017-08-18T02:35:44.311Z,19.80
2017-08-18T02:38:12.364Z,19.90
2017-08-18T02:40:39.836Z,19.80
2017-08-18T02:43:07.353Z,19.80
2017-08-18T02:45:35.589Z,19.70
2017-08-18T02:48:03.108Z,19.70
2017-08-18T02:50:30.555Z,19.70
2017-08-18T02:52:58.247Z,19.70
2017-08-18T02:55:26.912Z,19.70
2017-08-18T02:57:55.577Z,19.70
2017-08-18T03:00:23.012Z,19.70
2017-08-18T03:02:50.751Z,19.70
2017-08-18T03:05:18.193Z,19.70
2017-08-18T03:07:45.692Z,19.70
2017-08-18T03:10:13.494Z,19.70
2017-08-18T03:12:41.480Z,19.70
2017-08-18T03:15:09.604Z,19.70
2017-08-18T03:17:37.347Z,19.70
2017-08-18T03:20:05.550Z,19.70
2017-08-18T03:22:34.163Z,19.70
2017-08-18T03:25:01.611Z,19.60
2017-08-18T03:27:29.065Z,19.70
2017-08-18T03:29:56.524Z,19.70
2017-08-18T03:32:24.006Z,19.70
2017-08-18T03:34:51.995Z,19.70
2017-08-18T03:37:19.851Z,19.70
2017-08-18T03:39:47.327Z,19.70
2017-08-18T03:42:14.799Z,19.70
2017-08-18T03:44:42.612Z,19.70
2017-08-18T03:47:10.082Z,19.70
2017-08-18T03:49:37.517Z,19.70
2017-08-18T03:52:05.233Z,19.70
2017-08-18T03:54:33.473Z,19.70
2017-08-18T03:57:01.197Z,19.70
2017-08-18T03:59:28.637Z,19.70
2017-08-18T04:01:56.076Z,19.70
2017-08-18T04:04:24.082Z,19.70
2017-08-18T04:06:52.097Z,19.70
2017-08-18T04:09:19.559Z,19.70
2017-08-18T04:11:47.934Z,19.70
2017-08-18T04:14:15.405Z,19.70
2017-08-18T04:16:43.697Z,19.70
2017-08-18T04:19:13.493Z,19.70
2017-08-18T04:21:41.553Z,19.60
2017-08-18T04:24:09.022Z,19.60
2017-08-18T04:26:37.242Z,19.60
2017-08-18T04:29:04.717Z,19.60
2017-08-18T04:31:33.161Z,19.60
2017-08-18T04:34:00.597Z,19.60
2017-08-18T04:36:28.666Z,19.70
2017-08-18T04:38:56.819Z,19.60
2017-08-18T04:41:24.286Z,19.60
2017-08-18T04:43:52.595Z,19.70
2017-08-18T04:46:21.691Z,19.70
2017-08-18T04:48:49.549Z,19.70
2017-08-18T04:51:17.442Z,19.70
2017-08-18T04:53:44.898Z,19.70
2017-08-18T04:56:13.002Z,19.80
2017-08-18T04:58:40.701Z,19.80
2017-08-18T05:01:08.141Z,19.80
2017-08-18T05:03:35.986Z,19.80
2017-08-18T05:06:03.442Z,19.80
2017-08-18T05:08:30.881Z,19.80
2017-08-18T05:10:58.665Z,19.80
2017-08-18T05:13:27.023Z,19.80
2017-08-18T05:15:54.885Z,19.80
2017-08-18T05:18:23.240Z,19.70
2017-08-18T05:20:50.679Z,19.70
2017-08-18T05:23:18.529Z,19.80
2017-08-18T05:25:45.994Z,19.80
2017-08-18T05:28:14.745Z,19.80
2017-08-18T05:30:42.603Z,19.80
2017-08-18T05:33:10.245Z,19.80
2017-08-18T05:35:38.084Z,19.80
2017-08-18T05:38:05.754Z,19.70
2017-08-18T05:40:34.506Z,19.80
2017-08-18T05:43:01.939Z,19.80
2017-08-18T05:45:29.406Z,19.80
2017-08-18T05:47:57.711Z,19.70
2017-08-18T05:50:25.494Z,19.70
2017-08-18T05:52:52.969Z,19.70
2017-08-18T05:55:20.406Z,19.70
2017-08-18T05:57:48.969Z,19.80
2017-08-18T06:00:17.181Z,19.80
2017-08-18T06:02:46.045Z,19.80
2017-08-18T06:05:13.490Z,19.80
2017-08-18T06:07:40.934Z,19.80
2017-08-18T06:10:08.409Z,19.80
2017-08-18T06:12:36.468Z,19.80
2017-08-18T06:15:04.992Z,19.80
2017-08-18T06:17:32.777Z,19.80
2017-08-18T06:20:00.233Z,19.80
2017-08-18T06:22:28.778Z,19.70
2017-08-18T06:24:56.639Z,19.70
2017-08-18T06:27:24.584Z,19.70
2017-08-18T06:29:52.039Z,19.60
2017-08-18T06:32:20.253Z,19.50
2017-08-18T06:34:49.276Z,19.40
2017-08-18T06:37:18.024Z,19.40
2017-08-18T06:39:45.479Z,19.40
2017-08-18T06:42:12.934Z,19.30
2017-08-18T06:44:41.167Z,19.20
2017-08-18T06:47:08.614Z,19.20
2017-08-18T06:49:36.378Z,19.20
2017-08-18T06:52:04.577Z,19.20
2017-08-18T06:54:32.017Z,19.20
2017-08-18T06:56:59.721Z,19.30
2017-08-18T06:59:27.927Z,19.30
2017-08-18T07:01:55.384Z,19.30
2017-08-18T07:04:23.278Z,19.40
2017-08-18T07:06:51.507Z,19.40
2017-08-18T07:09:19.011Z,19.40
2017-08-18T07:11:46.862Z,19.40
2017-08-18T07:14:14.339Z,19.40
2017-08-18T07:16:41.789Z,19.50
2017-08-18T07:19:09.972Z,19.40
2017-08-18T07:21:38.721Z,19.40
2017-08-18T07:24:06.173Z,19.40
2017-08-18T07:26:34.777Z,19.40
2017-08-18T07:29:02.224Z,19.30
2017-08-18T07:31:30.822Z,19.30
2017-08-18T07:33:58.279Z,19.30
2017-08-18T07:36:26.332Z,19.30
2017-08-18T07:38:53.770Z,19.30
2017-08-18T07:41:21.226Z,19.30
2017-08-18T07:43:49.382Z,19.30
2017-08-18T07:46:17.633Z,19.40
2017-08-18T07:48:45.079Z,19.30
2017-08-18T07:51:12.520Z,19.40
2017-08-18T07:53:40.234Z,19.40
2017-08-18T07:56:07.672Z,19.40
2017-08-18T07:58:35.653Z,19.40
2017-08-18T08:01:03.089Z,19.40
2017-08-18T08:03:31.454Z,19.40
2017-08-18T08:05:59.845Z,19.40
2017-08-18T08:08:28.082Z,19.40
2017-08-18T08:10:55.841Z,19.40
2017-08-18T08:13:24.393Z,19.40
2017-08-18T08:15:51.834Z,19.40
2017-08-18T08:18:20.369Z,19.50
2017-08-18T08:20:48.252Z,19.50
2017-08-18T08:23:16.101Z,19.60
2017-08-18T08:25:43.571Z,19.60
2017-08-18T08:28:11.778Z,19.70
2017-08-18T08:30:39.357Z,19.70
2017-08-18T08:33:07.572Z,19.90
2017-08-18T08:35:35.350Z,19.90
2017-08-18T08:38:03.231Z,20.00
2017-08-18T08:40:30.700Z,20.10
2017-08-18T08:42:58.166Z,20.20
2017-08-18T08:45:25.606Z,20.20
2017-08-18T08:47:53.079Z,20.20
2017-08-18T08:50:20.509Z,20.20
2017-08-18T08:52:48.406Z,20.20
2017-08-18T08:55:15.846Z,20.30
2017-08-18T08:57:43.636Z,20.30
2017-08-18T09:00:11.082Z,20.40
2017-08-18T09:02:38.561Z,20.40
2017-08-18T09:05:07.294Z,20.40
2017-08-18T09:07:34.730Z,20.40
2017-08-18T09:10:02.205Z,20.30
2017-08-18T09:12:30.782Z,20.30
2017-08-18T09:14:58.367Z,20.30
2017-08-18T09:17:26.245Z,20.40
2017-08-18T09:19:54.120Z,20.40
2017-08-18T09:22:22.052Z,20.50
2017-08-18T09:24:49.521Z,20.50
2017-08-18T09:27:16.973Z,20.50
2017-08-18T09:29:44.442Z,20.50
2017-08-18T09:32:12.190Z,20.50
2017-08-18T09:34:39.634Z,20.60
2017-08-18T09:37:07.435Z,20.50
2017-08-18T09:39:35.644Z,20.60
2017-08-18T09:42:03.109Z,20.60
2017-08-18T09:44:30.578Z,20.60
2017-08-18T09:46:58.826Z,20.80
2017-08-18T09:49:38.922Z,20.80
2017-08-18T09:52:19.327Z,20.80
2017-08-18T09:54:59.303Z,20.90
2017-08-18T09:57:40.324Z,20.90
2017-08-18T10:00:07.899Z,21.00
2017-08-18T10:02:35.371Z,21.00
2017-08-18T10:05:03.244Z,20.90
2017-08-18T10:07:31.476Z,20.90
2017-08-18T10:09:58.958Z,20.90
2017-08-18T10:12:26.844Z,21.00
2017-08-18T10:14:54.661Z,21.00
2017-08-18T10:17:22.586Z,21.00
2017-08-18T10:19:51.241Z,21.10
2017-08-18T10:22:20.146Z,21.00
2017-08-18T10:24:48.790Z,21.00
2017-08-18T10:27:16.276Z,21.00
2017-08-18T10:29:44.845Z,21.00
2017-08-18T10:32:12.304Z,21.00
2017-08-18T10:34:39.851Z,21.00
2017-08-18T10:37:07.665Z,21.00
2017-08-18T10:39:35.492Z,21.00
2017-08-18T10:42:03.707Z,21.10
2017-08-18T10:44:32.382Z,21.10
2017-08-18T10:46:59.843Z,21.20
2017-08-18T10:49:28.226Z,21.20
2017-08-18T10:51:59.131Z,21.20
2017-08-18T10:54:27.461Z,21.20
2017-08-18T10:56:56.218Z,21.30
2017-08-18T10:59:23.649Z,21.30
2017-08-18T11:01:51.131Z,21.30
2017-08-18T11:04:18.596Z,21.30
2017-08-18T11:06:46.836Z,21.30
2017-08-18T11:09:14.350Z,21.30
2017-08-18T11:11:42.093Z,21.30
2017-08-18T11:14:10.213Z,21.30
2017-08-18T11:16:38.450Z,21.40
2017-08-18T11:19:06.441Z,21.30
2017-08-18T11:21:35.996Z,21.40
2017-08-18T11:24:03.457Z,21.40
2017-08-18T11:26:31.967Z,21.40
2017-08-18T11:28:59.418Z,21.40
2017-08-18T11:31:26.875Z,21.50
2017-08-18T11:33:54.395Z,21.50
2017-08-18T11:36:22.587Z,21.50
2017-08-18T11:38:50.411Z,21.50
2017-08-18T11:41:18.486Z,21.50
2017-08-18T11:43:45.946Z,21.60
2017-08-18T11:46:13.391Z,21.60
2017-08-18T11:48:41.633Z,21.50
2017-08-18T11:51:10.469Z,21.50
2017-08-18T11:53:37.910Z,21.40
2017-08-18T11:56:05.352Z,21.40
2017-08-18T11:58:33.250Z,21.30
2017-08-18T12:01:00.714Z,21.30
2017-08-18T12:03:28.182Z,21.30
2017-08-18T12:05:55.626Z,21.30
2017-08-18T12:08:23.347Z,21.30
2017-08-18T12:10:51.151Z,21.40
2017-08-18T12:13:18.583Z,21.40
2017-08-18T12:15:46.766Z,21.40
2017-08-18T12:18:14.949Z,21.40
2017-08-18T12:20:42.404Z,21.40
2017-08-18T12:23:11.137Z,21.40
2017-08-18T12:25:39.368Z,21.40
2017-08-18T12:28:07.034Z,21.40
2017-08-18T12:30:34.493Z,21.40
2017-08-18T12:33:02.766Z,21.30
2017-08-18T12:35:30.242Z,21.40
2017-08-18T12:37:57.950Z,21.40
2017-08-18T12:40:25.390Z,21.30
2017-08-18T12:42:52.853Z,21.30
2017-08-18T12:45:20.325Z,21.30
2017-08-18T12:47:47.814Z,21.30
2017-08-18T12:50:15.550Z,21.20
2017-08-18T12:52:43.014Z,21.20
2017-08-18T12:55:10.538Z,21.20
2017-08-18T12:57:40.061Z,21.20
2017-08-18T13:00:07.530Z,21.20
2017-08-18T13:02:36.526Z,21.10
2017-08-18T13:05:03.996Z,21.10
2017-08-18T13:07:32.228Z,21.10
2017-08-18T13:09:59.735Z,21.10
2017-08-18T13:12:27.166Z,21.10
2017-08-18T13:14:55.059Z,21.10
2017-08-18T13:17:23.063Z,21.10
2017-08-18T13:19:50.529Z,21.20
2017-08-18T13:22:18.618Z,21.20
2017-08-18T13:24:46.825Z,21.40
2017-08-18T13:27:14.725Z,21.40
2017-08-18T13:29:42.414Z,21.50
2017-08-18T13:32:09.854Z,21.60
2017-08-18T13:34:37.507Z,21.70
2017-08-18T13:37:05.580Z,21.70
2017-08-18T13:39:33.039Z,21.80
2017-08-18T13:42:00.507Z,21.80
2017-08-18T13:44:28.731Z,21.90
2017-08-18T13:46:56.570Z,21.90
2017-08-18T13:49:24.035Z,21.90
2017-08-18T13:51:51.507Z,21.90
2017-08-18T13:54:19.838Z,21.90
2017-08-18T13:56:48.019Z,21.90
2017-08-18T13:59:16.254Z,21.90
2017-08-18T14:01:45.047Z,21.90
2017-08-18T14:04:13.600Z,21.80
2017-08-18T14:06:41.049Z,21.80
2017-08-18T14:09:08.503Z,21.80
2017-08-18T14:11:37.057Z,21.70
2017-08-18T14:14:05.262Z,21.70
2017-08-18T14:16:33.264Z,21.70
2017-08-18T14:19:01.112Z,21.70
2017-08-18T14:21:29.525Z,21.70
2017-08-18T14:23:57.087Z,21.70
2017-08-18T14:26:30.845Z,21.70
2017-08-18T14:28:58.317Z,21.60
2017-08-18T14:31:26.089Z,21.60
2017-08-18T14:33:53.558Z,21.60
2017-08-18T14:36:22.274Z,21.60
2017-08-18T14:38:50.290Z,21.60
2017-08-18T14:41:17.873Z,21.60
2017-08-18T14:43:45.870Z,21.60
2017-08-18T14:46:13.328Z,21.70
2017-08-18T14:48:41.649Z,21.70
2017-08-18T14:51:09.463Z,21.70
2017-08-18T14:53:36.898Z,21.70
2017-08-18T14:56:04.387Z,21.80
2017-08-18T14:58:32.130Z,21.80
2017-08-18T15:00:59.652Z,21.80
2017-08-18T15:03:27.291Z,21.80
2017-08-18T15:05:54.847Z,21.70
2017-08-18T15:08:22.297Z,21.70
2017-08-18T15:10:50.268Z,21.70
2017-08-18T15:13:17.712Z,21.70
2017-08-18T15:15:45.651Z,21.70
2017-08-18T15:18:14.138Z,21.70
2017-08-18T15:20:42.358Z,21.50
2017-08-18T15:23:10.128Z,21.50
2017-08-18T15:25:38.598Z,21.40
2017-08-18T15:28:06.474Z,21.40
2017-08-18T15:30:35.029Z,21.20
2017-08-18T15:33:03.690Z,21.20
2017-08-18T15:35:32.455Z,21.20
2017-08-18T15:38:00.480Z,21.10
2017-08-18T15:40:27.919Z,21.10
2017-08-18T15:42:55.701Z,21.10
2017-08-18T15:45:23.138Z,21.10
2017-08-18T15:47:50.586Z,21.10
2017-08-18T15:50:18.068Z,20.90
2017-08-18T15:52:45.641Z,20.80
2017-08-18T15:55:13.212Z,20.60
2017-08-18T15:57:42.054Z,20.40
2017-08-18T16:00:09.599Z,20.10
2017-08-18T16:02:37.197Z,19.90
2017-08-18T16:05:05.409Z,19.60
2017-08-18T16:07:33.445Z,19.60
2017-08-18T16:10:00.881Z,19.60
2017-08-18T16:12:28.598Z,19.50
2017-08-18T16:14:56.104Z,19.40
2017-08-18T16:17:23.962Z,19.40
2017-08-18T16:19:51.400Z,19.30
2017-08-18T16:22:19.222Z,19.20
2017-08-18T16:24:46.683Z,19.20
2017-08-18T16:27:14.277Z,19.20
2017-08-18T16:29:42.199Z,19.20
2017-08-18T16:32:09.958Z,19.20
2017-08-18T16:34:38.614Z,19.30
2017-08-18T16:37:06.359Z,19.20
2017-08-18T16:39:34.444Z,19.30
2017-08-18T16:42:02.032Z,19.30
2017-08-18T16:44:29.781Z,19.30
2017-08-18T16:46:57.220Z,19.30
2017-08-18T16:49:25.909Z,19.30
2017-08-18T16:51:53.360Z,19.30
2017-08-18T16:54:20.804Z,19.30
2017-08-18T16:56:49.697Z,19.40
2017-08-18T16:59:17.904Z,19.40
2017-08-18T17:01:45.711Z,19.40
2017-08-18T17:04:13.909Z,19.50
2017-08-18T17:06:42.208Z,19.40
2017-08-18T17:09:10.532Z,19.40
2017-08-18T17:11:38.434Z,19.40
2017-08-18T17:14:07.270Z,19.40
2017-08-18T17:16:35.300Z,19.40
2017-08-18T17:19:03.307Z,19.40
2017-08-18T17:21:33.835Z,19.30
2017-08-18T17:24:01.423Z,19.30
2017-08-18T17:26:28.918Z,19.30
2017-08-18T17:28:56.501Z,19.30
2017-08-18T17:31:24.814Z,19.30
2017-08-18T17:33:53.043Z,19.30
2017-08-18T17:36:21.435Z,19.30
2017-08-18T17:38:49.375Z,19.30
2017-08-18T17:41:16.821Z,19.30
2017-08-18T17:43:44.296Z,19.30
2017-08-18T17:46:11.893Z,19.20
2017-08-18T17:48:39.327Z,19.20
2017-08-18T17:51:06.789Z,19.20
2017-08-18T17:53:35.069Z,19.20
2017-08-18T17:56:03.165Z,19.20
2017-08-18T17:58:31.061Z,19.20
2017-08-18T18:00:59.340Z,19.20
2017-08-18T18:03:26.782Z,19.20
2017-08-18T18:05:54.709Z,19.20
2017-08-18T18:08:22.179Z,19.30
2017-08-18T18:10:50.055Z,19.30
2017-08-18T18:13:17.604Z,19.30
2017-08-18T18:15:45.497Z,19.40
2017-08-18T18:18:13.374Z,19.40
2017-08-18T18:20:41.449Z,19.40
2017-08-18T18:23:09.231Z,19.40
2017-08-18T18:25:36.710Z,19.40
2017-08-18T18:28:04.234Z,19.50
2017-08-18T18:30:32.190Z,19.40
2017-08-18T18:33:00.002Z,19.40
2017-08-18T18:35:28.402Z,19.40
2017-08-18T18:37:56.646Z,19.40
2017-08-18T18:40:24.206Z,19.40
2017-08-18T18:42:51.640Z,19.40
2017-08-18T18:45:19.152Z,19.40
2017-08-18T18:47:46.726Z,19.40
2017-08-18T18:50:14.689Z,19.30
2017-08-18T18:52:43.052Z,19.20
2017-08-18T18:55:11.288Z,19.10
2017-08-18T18:57:39.199Z,19.10
2017-08-18T19:00:07.954Z,19.10
2017-08-18T19:02:36.440Z,19.00
2017-08-18T19:05:04.877Z,19.00
2017-08-18T19:07:33.104Z,19.00
2017-08-18T19:10:00.650Z,19.00
2017-08-18T19:12:28.752Z,19.00
2017-08-18T19:14:56.195Z,19.00
2017-08-18T19:17:24.100Z,18.90
2017-08-18T19:19:51.580Z,19.00
2017-08-18T19:22:19.494Z,18.90
2017-08-18T19:24:47.766Z,18.90
2017-08-18T19:27:15.209Z,18.80
2017-08-18T19:29:44.674Z,18.80
2017-08-18T19:32:12.149Z,18.80
2017-08-18T19:34:41.959Z,18.70
2017-08-18T19:37:09.993Z,18.60
2017-08-18T19:39:38.816Z,18.70
2017-08-18T19:42:06.278Z,18.70
2017-08-18T19:44:34.269Z,18.70
2017-08-18T19:47:01.801Z,18.70
2017-08-18T19:49:30.034Z,18.70
2017-08-18T19:51:57.549Z,18.70
2017-08-18T19:54:25.413Z,18.80
2017-08-18T19:56:54.409Z,18.80
2017-08-18T19:59:22.436Z,18.80
2017-08-18T20:01:50.325Z,18.90
2017-08-18T20:04:18.687Z,18.80
2017-08-18T20:06:46.137Z,18.80
2017-08-18T20:09:14.548Z,18.80
2017-08-18T20:11:42.542Z,18.80
2017-08-18T20:14:10.402Z,18.80
2017-08-18T20:16:38.635Z,18.80
2017-08-18T20:19:06.778Z,18.80
2017-08-18T20:21:35.481Z,18.80
2017-08-18T20:24:03.426Z,18.80
2017-08-18T20:26:30.869Z,18.80
2017-08-18T20:28:58.478Z,18.70
2017-08-18T20:31:26.202Z,18.60
2017-08-18T20:33:53.665Z,18.50
2017-08-18T20:36:22.362Z,18.30
2017-08-18T20:38:51.358Z,18.00
2017-08-18T20:41:19.592Z,17.80
2017-08-18T20:43:47.069Z,17.50
2017-08-18T20:46:15.302Z,17.30
2017-08-18T20:48:43.261Z,17.30
2017-08-18T20:51:11.180Z,17.20
2017-08-18T20:53:38.843Z,17.30
2017-08-18T20:56:06.575Z,17.30
2017-08-18T20:58:34.849Z,17.30
2017-08-18T21:01:02.315Z,17.20
2017-08-18T21:03:29.756Z,17.30
2017-08-18T21:05:57.992Z,17.30
2017-08-18T21:08:25.446Z,17.20
2017-08-18T21:10:53.348Z,17.20
2017-08-18T21:13:20.819Z,17.30
2017-08-18T21:15:48.653Z,17.20
2017-08-18T21:18:17.452Z,17.30
2017-08-18T21:20:44.894Z,17.30
2017-08-18T21:23:13.158Z,17.30
2017-08-18T21:25:40.625Z,17.30
2017-08-18T21:28:09.114Z,17.30
2017-08-18T21:30:36.551Z,17.30
2017-08-18T21:33:04.675Z,17.30
2017-08-18T21:35:32.118Z,17.30
2017-08-18T21:38:00.187Z,17.20
2017-08-18T21:40:28.794Z,17.20
2017-08-18T21:42:56.478Z,17.20
2017-08-18T21:45:24.721Z,17.20
2017-08-18T21:47:52.156Z,17.10
2017-08-18T21:50:19.616Z,17.10
2017-08-18T21:52:47.470Z,17.10
2017-08-18T21:55:14.925Z,17.00
2017-08-18T21:57:43.590Z,17.00
2017-08-18T22:00:12.559Z,17.00
2017-08-18T22:02:40.305Z,17.00
2017-08-18T22:05:08.515Z,16.90
2017-08-18T22:07:35.978Z,16.90
2017-08-18T22:10:03.532Z,16.90
2017-08-18T22:12:31.363Z,16.90
2017-08-18T22:14:58.782Z,16.90
2017-08-18T22:17:26.780Z,16.90
2017-08-18T22:19:54.545Z,16.80
2017-08-18T22:22:22.958Z,16.80
2017-08-18T22:24:50.404Z,16.70
2017-08-18T22:27:19.043Z,16.80
2017-08-18T22:29:46.481Z,16.70
2017-08-18T22:32:14.616Z,16.70
2017-08-18T22:34:42.459Z,16.70
2017-08-18T22:37:10.354Z,16.60
2017-08-18T22:39:39.074Z,16.60
2017-08-18T22:42:06.508Z,16.60
2017-08-18T22:44:33.972Z,16.60
2017-08-18T22:47:01.729Z,16.60
2017-08-18T22:49:29.957Z,16.60
2017-08-18T22:51:57.418Z,16.50
2017-08-18T22:54:25.665Z,16.50
2017-08-18T22:56:53.614Z,16.50
2017-08-18T22:59:21.053Z,16.50
2017-08-18T23:01:48.522Z,16.50
2017-08-18T23:04:16.737Z,16.50
2017-08-18T23:06:44.227Z,16.50
2017-08-18T23:09:12.427Z,16.40
2017-08-18T23:11:40.419Z,16.30
2017-08-18T23:14:08.678Z,16.30
2017-08-18T23:16:36.626Z,16.20
2017-08-18T23:19:05.179Z,16.20
2017-08-18T23:21:33.145Z,16.20
2017-08-18T23:24:01.930Z,16.10
2017-08-18T23:26:30.198Z,15.90
2017-08-18T23:28:58.407Z,15.90
2017-08-18T23:31:25.882Z,15.80
2017-08-18T23:33:54.549Z,15.80
2017-08-18T23:36:23.941Z,15.80
2017-08-18T23:38:51.909Z,15.80
2017-08-18T23:41:20.770Z,15.80
2017-08-18T23:43:48.987Z,15.80
2017-08-18T23:46:16.980Z,15.80
2017-08-18T23:48:45.208Z,15.80
2017-08-18T23:51:12.841Z,15.80
2017-08-18T23:53:40.323Z,15.80
2017-08-18T23:56:07.895Z,15.80
2017-08-18T23:58:35.846Z,15.70
